sensor_id;sensor_type;location;lat;lon;timestamp;P1;durP1;ratioP1;P2;durP2;ratioP2
57085;SDS011;42964;42.910;23.792;2022-07-29T00:01:07;14.30;;;12.15;;
57085;SDS011;42964;42.910;23.792;2022-07-29T00:06:06;20.88;;;17.05;;
57085;SDS011;42964;42.910;23.792;2022-07-29T00:11:05;22.73;;;17.85;;
57085;SDS011;42964;42.910;23.792;2022-07-29T00:16:04;21.92;;;18.48;;
57085;SDS011;42964;42.910;23.792;2022-07-29T00:21:03;20.00;;;17.83;;
57085;SDS011;42964;42.910;23.792;2022-07-29T00:26:02;22.63;;;19.05;;
57085;SDS011;42964;42.910;23.792;2022-07-29T00:31:01;23.95;;;20.25;;
57085;SDS011;42964;42.910;23.792;2022-07-29T00:36:00;21.77;;;18.73;;
57085;SDS011;42964;42.910;23.792;2022-07-29T00:40:59;22.02;;;17.67;;
57085;SDS011;42964;42.910;23.792;2022-07-29T00:45:58;26.25;;;19.20;;
57085;SDS011;42964;42.910;23.792;2022-07-29T00:51:00;23.67;;;19.60;;
57085;SDS011;42964;42.910;23.792;2022-07-29T00:56:00;24.20;;;18.50;;
57085;SDS011;42964;42.910;23.792;2022-07-29T01:00:59;22.38;;;19.75;;
57085;SDS011;42964;42.910;23.792;2022-07-29T01:05:58;24.45;;;19.30;;
57085;SDS011;42964;42.910;23.792;2022-07-29T01:10:59;25.40;;;21.20;;
57085;SDS011;42964;42.910;23.792;2022-07-29T01:16:03;24.02;;;20.67;;
57085;SDS011;42964;42.910;23.792;2022-07-29T01:26:31;20.88;;;17.88;;
57085;SDS011;42964;42.910;23.792;2022-07-29T01:36:48;21.87;;;19.27;;
57085;SDS011;42964;42.910;23.792;2022-07-29T01:47:17;22.83;;;18.98;;
57085;SDS011;42964;42.910;23.792;2022-07-29T01:52:42;22.75;;;18.25;;
57085;SDS011;42964;42.910;23.792;2022-07-29T01:57:44;22.10;;;17.67;;
57085;SDS011;42964;42.910;23.792;2022-07-29T02:02:46;24.77;;;18.58;;
57085;SDS011;42964;42.910;23.792;2022-07-29T02:07:47;22.45;;;19.08;;
57085;SDS011;42964;42.910;23.792;2022-07-29T02:12:47;24.67;;;20.90;;
57085;SDS011;42964;42.910;23.792;2022-07-29T02:17:49;21.45;;;17.52;;
57085;SDS011;42964;42.910;23.792;2022-07-29T02:22:52;25.10;;;18.70;;
57085;SDS011;42964;42.910;23.792;2022-07-29T02:27:53;21.13;;;18.70;;
57085;SDS011;42964;42.910;23.792;2022-07-29T02:32:52;23.08;;;18.40;;
57085;SDS011;42964;42.910;23.792;2022-07-29T02:37:53;20.58;;;17.10;;
57085;SDS011;42964;42.910;23.792;2022-07-29T02:43:11;20.40;;;16.38;;
57085;SDS011;42964;42.910;23.792;2022-07-29T02:48:12;19.45;;;15.98;;
57085;SDS011;42964;42.910;23.792;2022-07-29T02:53:16;21.05;;;18.42;;
57085;SDS011;42964;42.910;23.792;2022-07-29T02:59:01;23.27;;;18.10;;
57085;SDS011;42964;42.910;23.792;2022-07-29T03:03:44;22.33;;;17.77;;
57085;SDS011;42964;42.910;23.792;2022-07-29T03:08:45;24.48;;;17.23;;
57085;SDS011;42964;42.910;23.792;2022-07-29T03:13:45;22.73;;;16.13;;
57085;SDS011;42964;42.910;23.792;2022-07-29T03:18:45;21.15;;;17.95;;
57085;SDS011;42964;42.910;23.792;2022-07-29T03:23:45;18.90;;;15.65;;
57085;SDS011;42964;42.910;23.792;2022-07-29T03:28:44;17.60;;;12.50;;
57085;SDS011;42964;42.910;23.792;2022-07-29T03:33:43;14.15;;;12.07;;
57085;SDS011;42964;42.910;23.792;2022-07-29T03:38:42;15.73;;;11.07;;
57085;SDS011;42964;42.910;23.792;2022-07-29T03:43:42;15.13;;;11.68;;
57085;SDS011;42964;42.910;23.792;2022-07-29T03:48:44;14.60;;;10.15;;
57085;SDS011;42964;42.910;23.792;2022-07-29T03:53:47;14.18;;;10.05;;
57085;SDS011;42964;42.910;23.792;2022-07-29T03:58:46;12.70;;;10.10;;
57085;SDS011;42964;42.910;23.792;2022-07-29T04:03:45;15.73;;;12.25;;
57085;SDS011;42964;42.910;23.792;2022-07-29T04:08:44;18.08;;;14.77;;
57085;SDS011;42964;42.910;23.792;2022-07-29T04:13:43;21.65;;;18.25;;
57085;SDS011;42964;42.910;23.792;2022-07-29T04:18:42;24.67;;;18.98;;
57085;SDS011;42964;42.910;23.792;2022-07-29T04:23:41;20.38;;;17.80;;
57085;SDS011;42964;42.910;23.792;2022-07-29T04:28:43;19.95;;;16.60;;
57085;SDS011;42964;42.910;23.792;2022-07-29T04:33:42;21.27;;;17.70;;
57085;SDS011;42964;42.910;23.792;2022-07-29T04:38:41;21.02;;;17.20;;
57085;SDS011;42964;42.910;23.792;2022-07-29T04:43:40;23.95;;;19.05;;
57085;SDS011;42964;42.910;23.792;2022-07-29T04:48:39;26.80;;;19.38;;
57085;SDS011;42964;42.910;23.792;2022-07-29T04:53:38;25.08;;;19.65;;
57085;SDS011;42964;42.910;23.792;2022-07-29T04:58:37;25.02;;;17.90;;
57085;SDS011;42964;42.910;23.792;2022-07-29T05:03:36;24.92;;;18.23;;
57085;SDS011;42964;42.910;23.792;2022-07-29T05:08:36;19.65;;;17.50;;
57085;SDS011;42964;42.910;23.792;2022-07-29T05:13:35;21.13;;;17.65;;
57085;SDS011;42964;42.910;23.792;2022-07-29T05:18:34;22.58;;;18.27;;
57085;SDS011;42964;42.910;23.792;2022-07-29T05:23:33;23.05;;;18.13;;
57085;SDS011;42964;42.910;23.792;2022-07-29T05:28:34;22.55;;;19.85;;
57085;SDS011;42964;42.910;23.792;2022-07-29T05:33:33;27.13;;;18.80;;
57085;SDS011;42964;42.910;23.792;2022-07-29T05:38:33;23.58;;;19.48;;
57085;SDS011;42964;42.910;23.792;2022-07-29T05:43:33;22.35;;;19.85;;
57085;SDS011;42964;42.910;23.792;2022-07-29T05:48:32;22.60;;;19.35;;
57085;SDS011;42964;42.910;23.792;2022-07-29T05:53:31;23.20;;;19.48;;
57085;SDS011;42964;42.910;23.792;2022-07-29T05:58:30;26.08;;;19.65;;
57085;SDS011;42964;42.910;23.792;2022-07-29T06:03:28;21.98;;;17.92;;
57085;SDS011;42964;42.910;23.792;2022-07-29T06:08:28;20.85;;;17.15;;
57085;SDS011;42964;42.910;23.792;2022-07-29T06:13:27;18.63;;;16.65;;
57085;SDS011;42964;42.910;23.792;2022-07-29T06:18:26;20.63;;;15.93;;
57085;SDS011;42964;42.910;23.792;2022-07-29T06:23:25;18.42;;;14.98;;
57085;SDS011;42964;42.910;23.792;2022-07-29T06:28:24;18.13;;;15.25;;
57085;SDS011;42964;42.910;23.792;2022-07-29T06:33:23;16.33;;;13.00;;
57085;SDS011;42964;42.910;23.792;2022-07-29T06:38:22;19.75;;;14.32;;
57085;SDS011;42964;42.910;23.792;2022-07-29T06:43:21;19.73;;;14.80;;
57085;SDS011;42964;42.910;23.792;2022-07-29T06:48:20;15.60;;;11.80;;
57085;SDS011;42964;42.910;23.792;2022-07-29T06:53:19;15.60;;;12.52;;
57085;SDS011;42964;42.910;23.792;2022-07-29T06:58:18;13.80;;;10.82;;
57085;SDS011;42964;42.910;23.792;2022-07-29T07:03:18;13.80;;;10.73;;
57085;SDS011;42964;42.910;23.792;2022-07-29T07:08:18;14.60;;;11.57;;
57085;SDS011;42964;42.910;23.792;2022-07-29T07:13:18;12.70;;;10.68;;
57085;SDS011;42964;42.910;23.792;2022-07-29T07:18:18;15.13;;;12.57;;
57085;SDS011;42964;42.910;23.792;2022-07-29T07:23:17;13.07;;;10.57;;
57085;SDS011;42964;42.910;23.792;2022-07-29T07:28:16;13.68;;;10.80;;
57085;SDS011;42964;42.910;23.792;2022-07-29T07:33:15;12.70;;;11.07;;
57085;SDS011;42964;42.910;23.792;2022-07-29T07:38:14;12.05;;;10.75;;
57085;SDS011;42964;42.910;23.792;2022-07-29T07:43:13;11.93;;;10.63;;
57085;SDS011;42964;42.910;23.792;2022-07-29T07:48:12;13.45;;;10.07;;
57085;SDS011;42964;42.910;23.792;2022-07-29T07:53:11;12.50;;;10.70;;
57085;SDS011;42964;42.910;23.792;2022-07-29T07:58:10;12.75;;;10.30;;
57085;SDS011;42964;42.910;23.792;2022-07-29T08:03:09;10.70;;;9.02;;
57085;SDS011;42964;42.910;23.792;2022-07-29T08:08:11;12.25;;;9.80;;
57085;SDS011;42964;42.910;23.792;2022-07-29T08:13:10;11.65;;;8.43;;
57085;SDS011;42964;42.910;23.792;2022-07-29T08:18:12;10.50;;;8.70;;
57085;SDS011;42964;42.910;23.792;2022-07-29T08:23:11;13.27;;;8.85;;
57085;SDS011;42964;42.910;23.792;2022-07-29T08:28:10;8.90;;;7.93;;
57085;SDS011;42964;42.910;23.792;2022-07-29T08:33:09;10.50;;;8.73;;
57085;SDS011;42964;42.910;23.792;2022-07-29T08:38:08;10.63;;;8.60;;
57085;SDS011;42964;42.910;23.792;2022-07-29T08:43:08;14.57;;;10.70;;
57085;SDS011;42964;42.910;23.792;2022-07-29T08:48:07;13.45;;;11.15;;
57085;SDS011;42964;42.910;23.792;2022-07-29T08:53:07;11.95;;;9.50;;
57085;SDS011;42964;42.910;23.792;2022-07-29T08:58:09;13.13;;;9.57;;
57085;SDS011;42964;42.910;23.792;2022-07-29T09:03:10;11.10;;;9.05;;
57085;SDS011;42964;42.910;23.792;2022-07-29T09:08:13;10.25;;;9.18;;
57085;SDS011;42964;42.910;23.792;2022-07-29T09:13:14;9.68;;;8.68;;
57085;SDS011;42964;42.910;23.792;2022-07-29T09:18:32;10.13;;;8.13;;
57085;SDS011;42964;42.910;23.792;2022-07-29T09:23:37;9.38;;;8.38;;
57085;SDS011;42964;42.910;23.792;2022-07-29T09:28:41;11.27;;;8.55;;
57085;SDS011;42964;42.910;23.792;2022-07-29T09:33:41;9.50;;;7.78;;
57085;SDS011;42964;42.910;23.792;2022-07-29T09:38:40;10.52;;;7.80;;
57085;SDS011;42964;42.910;23.792;2022-07-29T09:43:40;11.18;;;8.50;;
57085;SDS011;42964;42.910;23.792;2022-07-29T09:48:41;9.32;;;7.63;;
57085;SDS011;42964;42.910;23.792;2022-07-29T09:53:40;9.38;;;7.50;;
57085;SDS011;42964;42.910;23.792;2022-07-29T09:58:39;9.45;;;8.07;;
57085;SDS011;42964;42.910;23.792;2022-07-29T10:03:54;9.57;;;7.70;;
57085;SDS011;42964;42.910;23.792;2022-07-29T10:08:53;9.90;;;7.55;;
57085;SDS011;42964;42.910;23.792;2022-07-29T10:13:52;9.75;;;7.97;;
57085;SDS011;42964;42.910;23.792;2022-07-29T10:18:51;9.65;;;8.18;;
57085;SDS011;42964;42.910;23.792;2022-07-29T10:23:51;9.70;;;8.13;;
57085;SDS011;42964;42.910;23.792;2022-07-29T10:28:51;9.80;;;7.95;;
57085;SDS011;42964;42.910;23.792;2022-07-29T10:44:19;9.32;;;8.10;;
57085;SDS011;42964;42.910;23.792;2022-07-29T10:49:21;9.20;;;7.93;;
57085;SDS011;42964;42.910;23.792;2022-07-29T10:59:35;9.75;;;8.75;;
57085;SDS011;42964;42.910;23.792;2022-07-29T11:09:42;12.00;;;8.75;;
57085;SDS011;42964;42.910;23.792;2022-07-29T11:14:56;9.82;;;7.63;;
57085;SDS011;42964;42.910;23.792;2022-07-29T11:25:33;10.55;;;7.80;;
57085;SDS011;42964;42.910;23.792;2022-07-29T11:36:34;10.07;;;7.90;;
57085;SDS011;42964;42.910;23.792;2022-07-29T11:41:26;10.25;;;8.20;;
57085;SDS011;42964;42.910;23.792;2022-07-29T11:51:55;10.63;;;7.50;;
57085;SDS011;42964;42.910;23.792;2022-07-29T11:56:55;10.35;;;6.55;;
57085;SDS011;42964;42.910;23.792;2022-07-29T12:01:57;8.77;;;7.20;;
57085;SDS011;42964;42.910;23.792;2022-07-29T12:06:57;8.65;;;7.15;;
57085;SDS011;42964;42.910;23.792;2022-07-29T12:11:56;8.20;;;7.38;;
57085;SDS011;42964;42.910;23.792;2022-07-29T12:16:56;8.43;;;7.22;;
57085;SDS011;42964;42.910;23.792;2022-07-29T12:21:55;10.63;;;7.38;;
57085;SDS011;42964;42.910;23.792;2022-07-29T12:26:57;9.48;;;7.65;;
57085;SDS011;42964;42.910;23.792;2022-07-29T12:31:57;11.07;;;8.50;;
57085;SDS011;42964;42.910;23.792;2022-07-29T12:36:56;8.85;;;7.90;;
57085;SDS011;42964;42.910;23.792;2022-07-29T12:41:55;10.48;;;7.93;;
57085;SDS011;42964;42.910;23.792;2022-07-29T12:47:03;9.73;;;7.93;;
57085;SDS011;42964;42.910;23.792;2022-07-29T12:52:22;9.27;;;8.38;;
57085;SDS011;42964;42.910;23.792;2022-07-29T12:57:22;10.57;;;8.23;;
57085;SDS011;42964;42.910;23.792;2022-07-29T13:02:22;10.68;;;8.32;;
57085;SDS011;42964;42.910;23.792;2022-07-29T13:07:29;9.57;;;8.27;;
57085;SDS011;42964;42.910;23.792;2022-07-29T13:12:29;9.02;;;8.13;;
57085;SDS011;42964;42.910;23.792;2022-07-29T13:17:28;9.23;;;8.30;;
57085;SDS011;42964;42.910;23.792;2022-07-29T13:22:38;9.98;;;8.98;;
57085;SDS011;42964;42.910;23.792;2022-07-29T13:27:38;10.43;;;8.50;;
57085;SDS011;42964;42.910;23.792;2022-07-29T13:32:43;9.30;;;8.40;;
57085;SDS011;42964;42.910;23.792;2022-07-29T13:37:41;10.10;;;8.90;;
57085;SDS011;42964;42.910;23.792;2022-07-29T13:42:41;10.70;;;7.70;;
57085;SDS011;42964;42.910;23.792;2022-07-29T13:47:40;9.27;;;7.68;;
57085;SDS011;42964;42.910;23.792;2022-07-29T13:52:39;9.27;;;7.35;;
57085;SDS011;42964;42.910;23.792;2022-07-29T13:57:38;7.50;;;6.13;;
57085;SDS011;42964;42.910;23.792;2022-07-29T14:02:36;7.15;;;6.45;;
57085;SDS011;42964;42.910;23.792;2022-07-29T14:07:37;6.80;;;6.10;;
57085;SDS011;42964;42.910;23.792;2022-07-29T14:12:37;7.22;;;6.00;;
57085;SDS011;42964;42.910;23.792;2022-07-29T14:17:36;7.50;;;5.80;;
57085;SDS011;42964;42.910;23.792;2022-07-29T14:22:35;5.85;;;4.90;;
57085;SDS011;42964;42.910;23.792;2022-07-29T14:27:34;5.95;;;4.97;;
57085;SDS011;42964;42.910;23.792;2022-07-29T14:32:33;5.38;;;4.88;;
57085;SDS011;42964;42.910;23.792;2022-07-29T14:37:32;10.60;;;6.25;;
57085;SDS011;42964;42.910;23.792;2022-07-29T14:42:31;8.25;;;6.95;;
57085;SDS011;42964;42.910;23.792;2022-07-29T14:47:30;13.07;;;8.75;;
57085;SDS011;42964;42.910;23.792;2022-07-29T14:52:29;10.73;;;8.60;;
57085;SDS011;42964;42.910;23.792;2022-07-29T14:57:28;10.52;;;8.38;;
57085;SDS011;42964;42.910;23.792;2022-07-29T15:02:27;9.55;;;7.60;;
57085;SDS011;42964;42.910;23.792;2022-07-29T15:07:26;10.45;;;8.13;;
57085;SDS011;42964;42.910;23.792;2022-07-29T15:12:25;10.73;;;8.50;;
57085;SDS011;42964;42.910;23.792;2022-07-29T15:17:24;9.35;;;7.57;;
57085;SDS011;42964;42.910;23.792;2022-07-29T15:22:23;8.82;;;7.53;;
57085;SDS011;42964;42.910;23.792;2022-07-29T15:27:22;9.55;;;7.45;;
57085;SDS011;42964;42.910;23.792;2022-07-29T15:32:21;9.57;;;7.75;;
57085;SDS011;42964;42.910;23.792;2022-07-29T15:37:20;8.30;;;7.28;;
57085;SDS011;42964;42.910;23.792;2022-07-29T15:42:19;11.35;;;8.25;;
57085;SDS011;42964;42.910;23.792;2022-07-29T15:47:18;10.30;;;8.38;;
57085;SDS011;42964;42.910;23.792;2022-07-29T15:52:17;8.02;;;7.22;;
57085;SDS011;42964;42.910;23.792;2022-07-29T15:57:17;9.52;;;7.43;;
57085;SDS011;42964;42.910;23.792;2022-07-29T16:02:16;9.95;;;7.65;;
57085;SDS011;42964;42.910;23.792;2022-07-29T16:07:15;9.55;;;7.22;;
57085;SDS011;42964;42.910;23.792;2022-07-29T16:12:15;11.05;;;9.65;;
57085;SDS011;42964;42.910;23.792;2022-07-29T16:17:14;11.90;;;8.98;;
57085;SDS011;42964;42.910;23.792;2022-07-29T16:22:13;10.05;;;7.65;;
57085;SDS011;42964;42.910;23.792;2022-07-29T16:27:12;10.38;;;8.13;;
57085;SDS011;42964;42.910;23.792;2022-07-29T16:32:11;8.88;;;7.47;;
57085;SDS011;42964;42.910;23.792;2022-07-29T16:37:09;11.93;;;8.00;;
57085;SDS011;42964;42.910;23.792;2022-07-29T16:42:08;9.77;;;7.80;;
57085;SDS011;42964;42.910;23.792;2022-07-29T16:47:07;9.57;;;7.35;;
57085;SDS011;42964;42.910;23.792;2022-07-29T16:52:06;10.93;;;8.65;;
57085;SDS011;42964;42.910;23.792;2022-07-29T16:57:05;14.18;;;9.68;;
57085;SDS011;42964;42.910;23.792;2022-07-29T17:02:04;9.63;;;8.40;;
57085;SDS011;42964;42.910;23.792;2022-07-29T17:07:03;11.23;;;8.88;;
57085;SDS011;42964;42.910;23.792;2022-07-29T17:12:02;11.35;;;8.38;;
57085;SDS011;42964;42.910;23.792;2022-07-29T17:17:02;12.05;;;9.32;;
57085;SDS011;42964;42.910;23.792;2022-07-29T17:22:02;11.95;;;9.77;;
57085;SDS011;42964;42.910;23.792;2022-07-29T17:27:02;10.40;;;9.27;;
57085;SDS011;42964;42.910;23.792;2022-07-29T17:32:01;12.02;;;9.13;;
57085;SDS011;42964;42.910;23.792;2022-07-29T17:37:01;14.88;;;9.68;;
57085;SDS011;42964;42.910;23.792;2022-07-29T17:42:04;12.07;;;9.30;;
57085;SDS011;42964;42.910;23.792;2022-07-29T17:47:04;10.27;;;9.15;;
57085;SDS011;42964;42.910;23.792;2022-07-29T17:52:04;13.85;;;10.13;;
57085;SDS011;42964;42.910;23.792;2022-07-29T17:57:03;12.40;;;9.77;;
57085;SDS011;42964;42.910;23.792;2022-07-29T18:02:02;13.93;;;10.40;;
57085;SDS011;42964;42.910;23.792;2022-07-29T18:07:01;13.68;;;10.88;;
57085;SDS011;42964;42.910;23.792;2022-07-29T18:12:00;13.57;;;10.52;;
57085;SDS011;42964;42.910;23.792;2022-07-29T18:16:59;13.68;;;11.55;;
57085;SDS011;42964;42.910;23.792;2022-07-29T18:21:58;14.35;;;11.40;;
57085;SDS011;42964;42.910;23.792;2022-07-29T18:26:57;13.35;;;10.80;;
57085;SDS011;42964;42.910;23.792;2022-07-29T18:31:56;11.65;;;10.45;;
57085;SDS011;42964;42.910;23.792;2022-07-29T18:36:56;15.10;;;11.23;;
57085;SDS011;42964;42.910;23.792;2022-07-29T18:41:55;14.95;;;9.77;;
57085;SDS011;42964;42.910;23.792;2022-07-29T18:46:54;13.02;;;10.40;;
57085;SDS011;42964;42.910;23.792;2022-07-29T18:51:53;12.63;;;10.02;;
57085;SDS011;42964;42.910;23.792;2022-07-29T18:56:54;14.38;;;10.43;;
57085;SDS011;42964;42.910;23.792;2022-07-29T19:01:53;12.60;;;10.80;;
57085;SDS011;42964;42.910;23.792;2022-07-29T19:06:52;13.65;;;10.98;;
57085;SDS011;42964;42.910;23.792;2022-07-29T19:11:51;21.40;;;16.20;;
57085;SDS011;42964;42.910;23.792;2022-07-29T19:16:51;17.10;;;14.32;;
57085;SDS011;42964;42.910;23.792;2022-07-29T19:21:49;15.70;;;13.48;;
57085;SDS011;42964;42.910;23.792;2022-07-29T19:26:48;16.13;;;13.52;;
57085;SDS011;42964;42.910;23.792;2022-07-29T19:31:47;17.25;;;14.90;;
57085;SDS011;42964;42.910;23.792;2022-07-29T19:36:46;18.23;;;14.93;;
57085;SDS011;42964;42.910;23.792;2022-07-29T19:41:45;16.80;;;14.85;;
57085;SDS011;42964;42.910;23.792;2022-07-29T19:46:45;16.70;;;14.15;;
57085;SDS011;42964;42.910;23.792;2022-07-29T19:51:44;17.45;;;14.40;;
57085;SDS011;42964;42.910;23.792;2022-07-29T19:56:43;16.40;;;14.10;;
57085;SDS011;42964;42.910;23.792;2022-07-29T20:01:42;19.40;;;15.13;;
57085;SDS011;42964;42.910;23.792;2022-07-29T20:06:41;18.23;;;14.02;;
57085;SDS011;42964;42.910;23.792;2022-07-29T20:11:40;16.50;;;13.45;;
57085;SDS011;42964;42.910;23.792;2022-07-29T20:16:39;15.48;;;13.55;;
57085;SDS011;42964;42.910;23.792;2022-07-29T20:21:38;18.98;;;14.15;;
57085;SDS011;42964;42.910;23.792;2022-07-29T20:26:37;16.13;;;12.27;;
57085;SDS011;42964;42.910;23.792;2022-07-29T20:31:36;15.73;;;13.23;;
57085;SDS011;42964;42.910;23.792;2022-07-29T20:36:35;15.13;;;13.35;;
57085;SDS011;42964;42.910;23.792;2022-07-29T20:41:34;20.75;;;14.48;;
57085;SDS011;42964;42.910;23.792;2022-07-29T20:46:33;15.65;;;13.65;;
57085;SDS011;42964;42.910;23.792;2022-07-29T20:51:32;16.50;;;13.95;;
57085;SDS011;42964;42.910;23.792;2022-07-29T20:56:31;17.60;;;14.48;;
57085;SDS011;42964;42.910;23.792;2022-07-29T21:01:30;18.65;;;14.57;;
57085;SDS011;42964;42.910;23.792;2022-07-29T21:06:29;17.23;;;13.48;;
57085;SDS011;42964;42.910;23.792;2022-07-29T21:11:29;17.25;;;14.70;;
57085;SDS011;42964;42.910;23.792;2022-07-29T21:16:27;20.65;;;15.23;;
57085;SDS011;42964;42.910;23.792;2022-07-29T21:21:28;18.63;;;15.60;;
57085;SDS011;42964;42.910;23.792;2022-07-29T21:26:27;19.65;;;15.70;;
57085;SDS011;42964;42.910;23.792;2022-07-29T21:31:26;18.08;;;15.52;;
57085;SDS011;42964;42.910;23.792;2022-07-29T21:36:25;18.83;;;15.27;;
57085;SDS011;42964;42.910;23.792;2022-07-29T21:41:24;17.55;;;15.65;;
57085;SDS011;42964;42.910;23.792;2022-07-29T21:46:24;17.63;;;15.70;;
57085;SDS011;42964;42.910;23.792;2022-07-29T21:51:23;19.40;;;15.30;;
57085;SDS011;42964;42.910;23.792;2022-07-29T21:56:22;17.45;;;14.73;;
57085;SDS011;42964;42.910;23.792;2022-07-29T22:01:21;19.55;;;14.60;;
57085;SDS011;42964;42.910;23.792;2022-07-29T22:06:21;16.08;;;13.93;;
57085;SDS011;42964;42.910;23.792;2022-07-29T22:11:20;17.23;;;14.50;;
57085;SDS011;42964;42.910;23.792;2022-07-29T22:16:19;14.57;;;13.02;;
57085;SDS011;42964;42.910;23.792;2022-07-29T22:21:18;15.75;;;13.68;;
57085;SDS011;42964;42.910;23.792;2022-07-29T22:26:17;16.00;;;13.93;;
57085;SDS011;42964;42.910;23.792;2022-07-29T22:31:16;17.00;;;14.98;;
57085;SDS011;42964;42.910;23.792;2022-07-29T22:36:15;17.63;;;14.35;;
57085;SDS011;42964;42.910;23.792;2022-07-29T22:41:14;19.63;;;14.63;;
57085;SDS011;42964;42.910;23.792;2022-07-29T22:46:13;16.38;;;14.55;;
57085;SDS011;42964;42.910;23.792;2022-07-29T22:51:12;18.40;;;14.85;;
57085;SDS011;42964;42.910;23.792;2022-07-29T22:56:11;17.58;;;15.60;;
57085;SDS011;42964;42.910;23.792;2022-07-29T23:01:10;19.38;;;15.77;;
57085;SDS011;42964;42.910;23.792;2022-07-29T23:06:10;19.50;;;16.73;;
57085;SDS011;42964;42.910;23.792;2022-07-29T23:11:08;17.85;;;15.90;;
57085;SDS011;42964;42.910;23.792;2022-07-29T23:16:07;21.25;;;16.35;;
57085;SDS011;42964;42.910;23.792;2022-07-29T23:21:06;22.02;;;17.63;;
57085;SDS011;42964;42.910;23.792;2022-07-29T23:26:05;20.45;;;16.77;;
57085;SDS011;42964;42.910;23.792;2022-07-29T23:31:04;18.80;;;16.52;;
57085;SDS011;42964;42.910;23.792;2022-07-29T23:36:03;21.20;;;16.58;;
57085;SDS011;42964;42.910;23.792;2022-07-29T23:41:02;20.13;;;17.23;;
57085;SDS011;42964;42.910;23.792;2022-07-29T23:46:06;18.90;;;16.75;;
57085;SDS011;42964;42.910;23.792;2022-07-29T23:51:05;16.80;;;15.00;;
57085;SDS011;42964;42.910;23.792;2022-07-29T23:56:04;19.60;;;16.17;;
